Time;durP1;ratioP1;P1;durP2;ratioP2;P2;SDS_P1;SDS_P2;PMS_P1;PMS_P2;Temp;Humidity;BMP_temperature;BMP_pressure;BME280_temperature;BME280_humidity;BME280_pressure;Samples;Min_cycle;Max_cycle;Signal;HPM_P1;HPM_P2
2023/05/30 00:01:32;;;;;;;12.13;3.10;;;;;;;9.84;76.84;102771.91;6249343;22;20023;-81
2023/05/30 00:04:00;;;;;;;8.77;2.33;;;;;;;9.82;77.29;102776.84;6249343;22;20013;-81
2023/05/30 00:06:27;;;;;;;12.65;2.95;;;;;;;9.79;77.03;102778.38;6247185;22;20023;-81
2023/05/30 00:08:54;;;;;;;11.70;3.15;;;;;;;9.77;77.22;102780.66;6249629;22;20019;-81
2023/05/30 00:11:23;;;;;;;12.02;3.10;;;;;;;9.77;77.38;102778.00;6247143;22;20096;-82
2023/05/30 00:13:50;;;;;;;11.20;2.72;;;;;;;9.76;77.19;102783.69;6247685;22;20016;-81
2023/05/30 00:16:19;;;;;;;12.18;2.78;;;;;;;9.74;77.64;102786.75;6247194;22;20013;-82
2023/05/30 00:18:46;;;;;;;14.45;3.00;;;;;;;9.70;78.12;102776.09;6249508;22;20012;-82
2023/05/30 00:21:14;;;;;;;12.95;3.10;;;;;;;9.68;77.94;102778.38;6249276;22;20020;-82
2023/05/30 00:23:40;;;;;;;14.27;3.03;;;;;;;9.65;77.96;102776.50;6247784;22;20020;-81
2023/05/30 00:26:09;;;;;;;9.10;2.92;;;;;;;9.62;78.43;102779.16;6249244;22;20041;-82
2023/05/30 00:28:38;;;;;;;13.45;2.63;;;;;;;9.59;78.49;102782.59;6222142;22;20017;-81
2023/05/30 00:31:07;;;;;;;10.95;2.65;;;;;;;9.57;78.56;102788.31;6222266;22;20024;-81
2023/05/30 00:33:34;;;;;;;12.40;2.83;;;;;;;9.56;78.82;102781.47;6220480;22;20492;-82
2023/05/30 00:36:01;;;;;;;9.15;3.15;;;;;;;9.53;78.81;102782.25;6247811;22;20418;-82
2023/05/30 00:38:28;;;;;;;9.85;2.85;;;;;;;9.50;78.71;102780.34;6246952;22;20043;-81
2023/05/30 00:40:54;;;;;;;13.20;2.88;;;;;;;9.47;79.29;102781.09;6249506;22;20051;-82
2023/05/30 00:43:22;;;;;;;14.75;3.20;;;;;;;9.43;79.29;102775.03;6221249;22;20049;-81
2023/05/30 00:45:52;;;;;;;16.10;3.45;;;;;;;9.42;79.20;102775.41;6247562;22;20044;-81
2023/05/30 00:48:20;;;;;;;9.67;2.80;;;;;;;9.41;79.30;102784.53;6220790;22;20044;-81
2023/05/30 00:50:47;;;;;;;12.50;3.13;;;;;;;9.38;79.64;102783.38;6247476;22;20405;-81
2023/05/30 00:53:15;;;;;;;8.68;3.50;;;;;;;9.36;79.50;102780.34;6247153;22;20013;-82
2023/05/30 00:55:42;;;;;;;19.67;3.65;;;;;;;9.33;79.88;102779.22;6247634;22;20136;-82
2023/05/30 00:58:09;;;;;;;15.18;3.40;;;;;;;9.31;79.86;102778.06;6246521;22;20079;-82
2023/05/30 01:00:39;;;;;;;12.75;3.25;;;;;;;9.29;79.93;102778.44;6246993;22;20528;-81
2023/05/30 01:03:08;;;;;;;16.40;3.30;;;;;;;9.28;79.75;102776.16;6246617;22;20129;-81
2023/05/30 01:05:35;;;;;;;9.85;3.15;;;;;;;9.25;79.90;102774.28;6248811;22;20107;-81
2023/05/30 01:08:02;;;;;;;8.43;3.10;;;;;;;9.24;80.11;102775.41;6249229;22;20012;-81
2023/05/30 01:10:31;;;;;;;21.00;3.42;;;;;;;9.21;80.42;102781.47;6248701;22;20432;-81
2023/05/30 01:13:17;;;;;;;10.25;2.97;;;;;;;9.18;80.00;102784.94;6247385;22;20470;-82
2023/05/30 01:15:50;;;;;;;11.13;3.30;;;;;;;9.14;80.37;102776.94;6248663;22;20020;-82
2023/05/30 01:18:31;;;;;;;12.82;2.85;;;;;;;9.13;80.49;102780.00;6246775;22;20104;-81
2023/05/30 01:21:02;;;;;;;11.35;3.53;;;;;;;9.11;80.86;102777.72;6247294;22;20021;-80
2023/05/30 01:23:47;;;;;;;15.38;3.28;;;;;;;9.08;80.34;102786.44;6248433;22;20048;-80
2023/05/30 01:26:26;;;;;;;12.77;3.33;;;;;;;9.07;80.80;102779.59;6248413;22;20020;-80
2023/05/30 01:28:54;;;;;;;14.15;3.67;;;;;;;9.05;81.25;102783.78;6247389;22;20024;-81
2023/05/30 01:31:23;;;;;;;14.57;3.30;;;;;;;9.03;81.20;102776.19;6245569;22;20406;-81
2023/05/30 01:33:51;;;;;;;10.13;3.22;;;;;;;9.01;81.57;102781.13;6246714;22;20023;-80
2023/05/30 01:36:20;;;;;;;16.42;3.30;;;;;;;8.99;81.72;102781.50;6248339;22;20417;-81
2023/05/30 01:38:46;;;;;;;11.07;2.85;;;;;;;8.97;81.73;102786.44;6248875;22;20035;-81
2023/05/30 01:41:52;;;;;;;14.45;2.97;;;;;;;8.96;81.11;102787.56;6246617;22;20013;-81
2023/05/30 01:44:33;;;;;;;15.32;3.00;;;;;;;8.96;82.03;102797.44;6205569;22;20016;-81
2023/05/30 01:47:14;;;;;;;12.60;3.22;;;;;;;8.92;81.69;102789.44;6248571;22;20458;-80
2023/05/30 01:49:45;;;;;;;10.57;3.35;;;;;;;8.92;82.04;102788.69;6250257;22;20454;-82
2023/05/30 01:52:20;;;;;;;11.02;3.13;;;;;;;8.90;81.78;102804.25;6249893;22;20347;-81
2023/05/30 01:54:58;;;;;;;12.90;3.40;;;;;;;8.89;81.83;102803.47;6248578;22;20477;-81
2023/05/30 01:57:28;;;;;;;8.52;3.28;;;;;;;8.87;82.73;102800.44;6248371;22;20414;-82
2023/05/30 01:59:56;;;;;;;10.30;3.20;;;;;;;8.86;82.60;102800.81;6247703;22;20040;-81
2023/05/30 02:02:24;;;;;;;10.07;3.20;;;;;;;8.85;83.02;102800.06;6249531;22;20017;-81
2023/05/30 02:04:50;;;;;;;7.28;2.80;;;;;;;8.84;83.01;102793.22;6248552;22;20017;-81
2023/05/30 02:07:17;;;;;;;6.65;3.30;;;;;;;8.84;83.09;102787.91;6247574;22;20075;-81
2023/05/30 02:09:44;;;;;;;8.18;3.25;;;;;;;8.85;83.11;102791.34;6248345;22;20029;-81
2023/05/30 02:12:11;;;;;;;10.82;3.35;;;;;;;8.85;83.17;102794.00;6247884;22;20060;-81
2023/05/30 02:14:37;;;;;;;9.85;3.90;;;;;;;8.85;83.23;102802.72;6247588;22;20016;-81
2023/05/30 02:17:05;;;;;;;17.38;3.58;;;;;;;8.87;83.36;102799.69;6250087;22;20013;-82
2023/05/30 02:19:32;;;;;;;9.65;3.28;;;;;;;8.87;83.33;102797.78;6247720;22;20017;-81
2023/05/30 02:21:59;;;;;;;12.73;3.58;;;;;;;8.88;83.47;102795.88;6250613;22;20025;-82
2023/05/30 02:24:25;;;;;;;16.52;3.30;;;;;;;8.89;83.66;102800.81;6247736;22;20017;-81
2023/05/30 02:26:52;;;;;;;17.88;3.53;;;;;;;8.87;83.76;102795.13;6248486;22;20027;-81
2023/05/30 02:29:19;;;;;;;12.73;3.50;;;;;;;8.87;83.30;102805.75;6247202;22;20027;-81
2023/05/30 02:31:46;;;;;;;12.30;3.70;;;;;;;8.86;83.31;102801.56;6248505;22;20036;-81
2023/05/30 02:34:13;;;;;;;7.97;2.90;;;;;;;8.86;83.96;102803.47;6249759;22;20091;-81
2023/05/30 02:36:39;;;;;;;8.48;3.53;;;;;;;8.85;83.50;102799.31;6250430;22;20020;-82
2023/05/30 02:39:08;;;;;;;10.60;3.17;;;;;;;8.83;83.71;102807.66;6248007;22;20447;-82
2023/05/30 02:41:38;;;;;;;11.35;3.45;;;;;;;8.83;84.15;102804.22;6250326;22;20021;-82
2023/05/30 02:44:06;;;;;;;15.35;3.55;;;;;;;8.84;84.05;102811.81;6247761;22;20076;-82
2023/05/30 02:46:34;;;;;;;15.57;3.88;;;;;;;8.87;84.34;102813.72;6223081;22;20087;-81
2023/05/30 02:49:02;;;;;;;9.15;3.28;;;;;;;8.90;84.20;102809.56;6248150;22;20020;-81
2023/05/30 02:51:29;;;;;;;7.88;3.38;;;;;;;8.91;84.10;102813.72;6222169;22;20029;-81
2023/05/30 02:53:55;;;;;;;9.95;3.63;;;;;;;8.94;84.23;102812.97;6248533;22;20017;-81
2023/05/30 02:56:34;;;;;;;8.10;2.85;;;;;;;8.98;84.39;102821.72;6247305;22;20016;-80
2023/05/30 02:59:07;;;;;;;15.02;3.80;;;;;;;9.00;83.93;102814.13;6248993;22;20027;-82
2023/05/30 03:01:56;;;;;;;10.00;3.42;;;;;;;9.04;84.14;102809.59;6249809;22;20194;-81
2023/05/30 03:04:23;;;;;;;12.02;3.75;;;;;;;9.07;84.06;102813.38;6222207;22;20383;-81
2023/05/30 03:06:51;;;;;;;9.85;3.25;;;;;;;9.08;84.03;102818.31;6250050;22;20036;-81
2023/05/30 03:09:23;;;;;;;6.35;3.42;;;;;;;9.11;84.03;102806.94;6247777;22;20020;-81
2023/05/30 03:11:49;;;;;;;8.20;3.65;;;;;;;9.13;84.36;102812.63;6247818;22;20052;-81
2023/05/30 03:14:16;;;;;;;8.63;3.10;;;;;;;9.16;84.25;102809.22;6249375;22;20079;-81
2023/05/30 03:16:43;;;;;;;9.18;3.58;;;;;;;9.19;83.98;102821.00;6249941;22;20040;-82
2023/05/30 03:19:13;;;;;;;7.47;3.05;;;;;;;9.21;84.07;102821.34;6247185;22;20434;-81
2023/05/30 03:21:40;;;;;;;8.07;3.28;;;;;;;9.23;83.85;102824.38;6248115;22;20059;-80
2023/05/30 03:24:07;;;;;;;7.90;3.13;;;;;;;9.23;83.91;102825.16;6247718;22;20778;-81
2023/05/30 03:26:40;;;;;;;10.13;3.70;;;;;;;9.25;83.97;102832.75;6247456;22;20332;-81
2023/05/30 03:29:08;;;;;;;11.43;3.92;;;;;;;9.28;84.31;102821.34;6247206;22;20020;-80
2023/05/30 03:31:35;;;;;;;13.50;3.85;;;;;;;9.28;83.79;102818.69;6247157;22;20087;-81
2023/05/30 03:34:02;;;;;;;8.88;3.38;;;;;;;9.29;84.25;102823.63;6247854;22;20021;-81
2023/05/30 03:36:29;;;;;;;12.95;3.45;;;;;;;9.31;84.18;102823.25;6248847;22;20023;-81
2023/05/30 03:38:56;;;;;;;15.20;3.55;;;;;;;9.32;84.50;102828.19;6247548;22;20021;-81
2023/05/30 03:41:24;;;;;;;13.23;3.72;;;;;;;9.36;84.33;102820.22;6246730;22;20020;-81
2023/05/30 03:43:51;;;;;;;16.38;3.70;;;;;;;9.38;84.51;102833.13;6249760;22;20013;-81
2023/05/30 03:46:19;;;;;;;8.98;3.97;;;;;;;9.39;84.21;102832.75;6248788;22;20418;-81
2023/05/30 03:48:46;;;;;;;11.65;4.00;;;;;;;9.41;84.52;102845.66;6247607;22;20047;-81
2023/05/30 03:51:13;;;;;;;10.50;3.67;;;;;;;9.44;84.52;102847.56;6246916;22;20024;-81
2023/05/30 03:53:43;;;;;;;9.23;3.65;;;;;;;9.48;84.37;102848.31;6247678;22;20040;-81
2023/05/30 03:56:10;;;;;;;12.80;3.60;;;;;;;9.51;84.34;102843.00;6221485;22;20020;-81
2023/05/30 03:58:36;;;;;;;11.20;3.65;;;;;;;9.55;83.92;102841.13;6247128;22;20020;-81
2023/05/30 04:01:03;;;;;;;10.07;3.70;;;;;;;9.57;83.85;102851.38;6249707;22;20017;-80
2023/05/30 04:03:29;;;;;;;12.07;3.90;;;;;;;9.61;83.99;102844.13;6246918;22;20470;-81
2023/05/30 04:05:58;;;;;;;11.40;4.05;;;;;;;9.63;84.06;102845.25;6249547;22;20020;-81
2023/05/30 04:08:25;;;;;;;8.63;3.80;;;;;;;9.66;83.61;102838.41;6246419;22;20466;-81
2023/05/30 04:10:52;;;;;;;11.18;4.03;;;;;;;9.70;83.33;102841.84;6247079;22;20025;-81
2023/05/30 04:13:20;;;;;;;13.57;3.95;;;;;;;9.73;83.13;102835.75;6246609;22;20021;-81
2023/05/30 04:15:48;;;;;;;8.98;3.72;;;;;;;9.78;82.90;102838.03;6222661;22;20419;-81
2023/05/30 04:18:15;;;;;;;10.90;3.60;;;;;;;9.82;83.01;102833.47;6248851;22;20020;-81
2023/05/30 04:20:42;;;;;;;10.38;3.75;;;;;;;9.87;82.67;102840.31;6249409;22;20055;-81
2023/05/30 04:23:08;;;;;;;10.35;3.67;;;;;;;9.91;82.70;102836.50;6222139;22;20021;-81
2023/05/30 04:25:35;;;;;;;7.43;3.50;;;;;;;9.95;82.12;102837.25;6246703;22;20028;-81
2023/05/30 04:28:03;;;;;;;11.40;3.45;;;;;;;9.97;80.84;102845.59;6249461;22;20019;-81
2023/05/30 04:30:30;;;;;;;9.15;4.00;;;;;;;9.99;80.58;102843.31;6246837;22;20024;-81
2023/05/30 04:32:57;;;;;;;11.07;3.90;;;;;;;10.04;80.22;102839.47;6249830;22;20047;-80
2023/05/30 04:35:24;;;;;;;9.35;3.72;;;;;;;10.10;80.03;102843.28;6246963;22;20071;-80
2023/05/30 04:37:53;;;;;;;8.00;3.88;;;;;;;10.14;79.18;102846.69;6249430;22;20016;-81
2023/05/30 04:40:20;;;;;;;12.02;3.80;;;;;;;10.19;79.62;102842.88;6246012;22;20115;-80
2023/05/30 04:42:51;;;;;;;12.65;3.92;;;;;;;10.25;79.40;102849.34;6247467;22;20833;-81
2023/05/30 04:45:18;;;;;;;10.13;3.88;;;;;;;10.31;79.07;102845.16;6221640;22;20040;-81
2023/05/30 04:47:45;;;;;;;13.93;4.10;;;;;;;10.34;78.57;102845.13;6247430;22;20454;-81
2023/05/30 04:50:14;;;;;;;16.10;4.40;;;;;;;10.35;78.04;102849.31;6221726;22;20021;-81
2023/05/30 04:52:42;;;;;;;14.02;4.40;;;;;;;10.42;78.10;102853.06;6246906;22;20016;-81
2023/05/30 04:55:10;;;;;;;13.85;4.15;;;;;;;10.45;77.35;102852.31;6246164;22;20021;-81
2023/05/30 04:57:38;;;;;;;6.15;3.75;;;;;;;10.50;77.55;102851.91;6248435;22;20020;-81
2023/05/30 05:00:13;;;;;;;10.63;4.28;;;;;;;10.52;76.78;102849.59;6247332;22;20143;-80
2023/05/30 05:02:42;;;;;;;12.52;4.07;;;;;;;10.55;76.55;102857.59;6249247;22;20089;-81
2023/05/30 05:05:10;;;;;;;5.57;3.72;;;;;;;10.57;76.54;102851.88;6246911;22;20012;-80
2023/05/30 05:07:36;;;;;;;10.70;3.95;;;;;;;10.59;75.61;102857.56;6247900;22;20084;-80
2023/05/30 05:10:11;;;;;;;10.70;3.85;;;;;;;10.62;76.04;102860.22;6248642;22;20430;-81
2023/05/30 05:12:38;;;;;;;7.18;3.58;;;;;;;10.68;75.52;102866.66;6249060;22;20020;-81
2023/05/30 05:15:05;;;;;;;13.10;4.40;;;;;;;10.72;75.36;102865.88;6248828;22;20017;-80
2023/05/30 05:17:31;;;;;;;10.25;4.13;;;;;;;10.77;75.32;102868.16;6248665;22;20016;-80
2023/05/30 05:19:58;;;;;;;9.43;3.58;;;;;;;10.85;75.32;102857.03;6247983;22;20027;-81
2023/05/30 05:22:25;;;;;;;7.35;4.00;;;;;;;10.90;74.58;102856.63;6249035;22;20418;-81
2023/05/30 05:24:52;;;;;;;11.48;3.78;;;;;;;10.92;74.12;102853.56;6250516;22;20426;-82
2023/05/30 05:27:19;;;;;;;9.50;3.70;;;;;;;10.98;74.39;102857.34;6248017;22;20020;-81
2023/05/30 05:29:45;;;;;;;8.15;3.53;;;;;;;11.00;73.99;102855.06;6248779;22;20483;-81
2023/05/30 05:32:12;;;;;;;14.45;4.28;;;;;;;11.05;73.99;102859.22;6249823;22;20016;-82
2023/05/30 05:34:38;;;;;;;11.88;4.10;;;;;;;11.07;73.69;102868.34;6248565;22;20020;-81
2023/05/30 05:37:05;;;;;;;11.10;3.90;;;;;;;11.18;72.57;102860.28;6249568;22;20013;-81
2023/05/30 05:39:32;;;;;;;8.75;3.85;;;;;;;11.30;72.80;102854.44;6247965;22;20089;-81
2023/05/30 05:41:58;;;;;;;8.80;3.70;;;;;;;11.43;71.88;102860.06;6250360;22;20019;-80
2023/05/30 05:44:25;;;;;;;7.88;3.50;;;;;;;11.54;70.97;102853.50;6249276;22;20419;-79
2023/05/30 05:46:51;;;;;;;4.93;3.10;;;;;;;11.70;71.04;102850.28;6249824;22;20402;-79
2023/05/30 05:49:18;;;;;;;11.25;3.40;;;;;;;11.82;70.38;102863.16;6249168;22;20096;-79
2023/05/30 05:51:44;;;;;;;8.77;3.67;;;;;;;11.89;69.17;102860.44;6247421;22;20053;-79
2023/05/30 05:54:11;;;;;;;10.10;3.75;;;;;;;11.82;68.88;102862.41;6249173;22;20016;-81
2023/05/30 05:56:38;;;;;;;10.13;3.45;;;;;;;11.83;69.23;102866.59;6248277;22;20503;-80
2023/05/30 05:59:04;;;;;;;8.00;3.65;;;;;;;11.88;68.79;102861.59;6247903;22;20518;-79
2023/05/30 06:01:31;;;;;;;13.18;3.63;;;;;;;11.90;68.22;102866.53;6249651;22;20013;-82
2023/05/30 06:04:01;;;;;;;8.60;3.30;;;;;;;11.97;68.52;102874.47;6248479;22;20108;-80
2023/05/30 06:06:28;;;;;;;9.23;3.45;;;;;;;12.07;67.89;102872.81;6247101;22;20023;-81
2023/05/30 06:08:55;;;;;;;5.15;2.92;;;;;;;12.21;67.44;102862.75;6248198;22;20742;-81
2023/05/30 06:11:22;;;;;;;7.15;3.40;;;;;;;12.38;67.09;102862.94;6250494;22;20095;-80
2023/05/30 06:13:48;;;;;;;9.57;3.55;;;;;;;12.45;66.77;102857.50;6250698;22;20336;-80
2023/05/30 06:16:15;;;;;;;9.80;3.22;;;;;;;12.51;66.76;102861.25;6248279;22;20452;-81
2023/05/30 06:18:42;;;;;;;9.02;3.80;;;;;;;12.59;66.06;102858.09;6250641;22;20704;-82
2023/05/30 06:21:10;;;;;;;12.20;3.50;;;;;;;12.55;65.79;102861.97;6249624;22;20013;-81
2023/05/30 06:23:37;;;;;;;8.00;3.40;;;;;;;12.53;66.16;102859.69;6250542;22;20458;-81
2023/05/30 06:26:04;;;;;;;7.75;3.35;;;;;;;12.47;66.03;102863.97;6249210;22;20023;-81
2023/05/30 06:28:31;;;;;;;7.35;3.65;;;;;;;12.51;66.13;102866.59;6250628;22;20016;-78
2023/05/30 06:30:57;;;;;;;8.95;3.70;;;;;;;12.51;66.52;102862.00;6249714;22;20017;-79
2023/05/30 06:33:24;;;;;;;10.95;3.95;;;;;;;12.59;66.34;102866.09;6250365;22;20171;-79
2023/05/30 06:35:51;;;;;;;9.38;3.90;;;;;;;12.68;66.12;102869.03;6249804;22;20095;-83
2023/05/30 06:38:17;;;;;;;14.75;3.45;;;;;;;12.81;66.24;102861.22;6248331;22;20526;-83
2023/05/30 06:40:44;;;;;;;11.88;3.85;;;;;;;12.85;65.32;102874.53;6250572;22;20017;-82
2023/05/30 06:43:10;;;;;;;11.10;4.05;;;;;;;13.01;64.29;102870.09;6249266;22;20067;-86
2023/05/30 06:45:37;;;;;;;7.78;2.95;;;;;;;13.32;63.74;102872.72;6250843;22;20439;-83
2023/05/30 06:48:04;;;;;;;12.65;3.47;;;;;;;13.60;62.84;102864.19;6248981;22;20084;-83
2023/05/30 06:50:31;;;;;;;7.88;3.92;;;;;;;13.67;62.27;102866.75;6248395;22;20047;-83
2023/05/30 06:52:57;;;;;;;8.95;4.05;;;;;;;13.92;61.33;102881.63;6251476;22;20056;-81
2023/05/30 06:55:24;;;;;;;8.15;3.38;;;;;;;14.02;61.10;102873.38;6223069;22;20128;-78
2023/05/30 06:57:54;;;;;;;8.38;3.60;;;;;;;14.47;60.04;102880.19;6250511;22;20044;-79
2023/05/30 07:00:22;;;;;;;12.30;3.72;;;;;;;14.43;59.52;102887.53;6248840;22;20795;-79
2023/05/30 07:02:49;;;;;;;12.35;3.35;;;;;;;14.27;60.44;102874.84;6250598;22;20016;-77
2023/05/30 07:05:16;;;;;;;10.57;4.20;;;;;;;14.35;59.74;102879.66;6249484;22;20461;-80
2023/05/30 07:07:43;;;;;;;5.03;3.25;;;;;;;14.50;59.46;102882.78;6223256;22;20107;-78
2023/05/30 07:10:09;;;;;;;16.02;3.85;;;;;;;14.67;59.71;102876.31;6222874;22;20043;-76
2023/05/30 07:12:36;;;;;;;9.45;3.70;;;;;;;14.81;58.71;102882.53;6250475;22;20100;-78
2023/05/30 07:15:03;;;;;;;9.43;4.38;;;;;;;14.98;58.63;102884.81;6250528;22;20063;-78
2023/05/30 07:17:29;;;;;;;12.45;3.40;;;;;;;15.12;58.39;102875.69;6250176;22;20411;-77
2023/05/30 07:19:56;;;;;;;9.18;3.90;;;;;;;15.08;58.54;102885.75;6249741;22;20447;-80
2023/05/30 07:22:22;;;;;;;9.00;3.63;;;;;;;15.00;58.17;102887.06;6248113;22;20092;-80
2023/05/30 07:24:49;;;;;;;6.63;3.08;;;;;;;15.02;58.07;102896.22;6248866;22;20431;-77
2023/05/30 07:27:15;;;;;;;12.48;3.92;;;;;;;14.96;58.48;102889.09;6250273;22;20426;-77
2023/05/30 07:29:42;;;;;;;10.60;3.85;;;;;;;15.11;58.32;102889.53;6250357;22;20087;-82
2023/05/30 07:32:10;;;;;;;9.70;3.67;;;;;;;15.01;57.86;102894.72;6250071;22;20447;-80
2023/05/30 07:34:37;;;;;;;8.00;3.83;;;;;;;14.86;58.47;102890.81;6247843;22;20020;-79
2023/05/30 07:37:04;;;;;;;7.75;3.60;;;;;;;14.93;58.23;102888.00;6250218;22;20454;-80
2023/05/30 07:39:30;;;;;;;11.27;3.78;;;;;;;15.07;57.92;102884.25;6250216;22;20016;-79
2023/05/30 07:41:57;;;;;;;8.38;3.83;;;;;;;15.12;57.88;102882.97;6250070;22;20067;-78
2023/05/30 07:44:23;;;;;;;9.77;4.05;;;;;;;15.34;57.90;102882.03;6248110;22;20021;-83
2023/05/30 07:46:50;;;;;;;11.93;3.72;;;;;;;15.69;56.49;102879.66;6250437;22;20024;-78
2023/05/30 07:49:19;;;;;;;7.65;3.53;;;;;;;15.98;56.06;102877.75;6249976;22;20013;-78
2023/05/30 07:51:46;;;;;;;14.02;4.10;;;;;;;16.22;54.84;102872.09;6248273;22;20494;-77
2023/05/30 07:54:12;;;;;;;13.85;4.10;;;;;;;16.50;53.71;102881.28;6250047;22;20480;-78
2023/05/30 07:56:39;;;;;;;7.75;3.88;;;;;;;16.72;54.06;102887.56;6252307;22;20021;-82
2023/05/30 07:59:06;;;;;;;10.15;4.03;;;;;;;16.94;52.69;102888.41;6250203;22;20472;-81
2023/05/30 08:01:33;;;;;;;9.65;3.67;;;;;;;16.92;52.80;102888.09;6250129;22;20019;-87
2023/05/30 08:04:00;;;;;;;11.55;4.40;;;;;;;16.99;52.49;102882.50;6249231;22;20071;-82
2023/05/30 08:06:27;;;;;;;9.73;3.80;;;;;;;17.12;51.67;102887.09;6248529;22;20407;-80
2023/05/30 08:08:53;;;;;;;8.00;3.72;;;;;;;17.07;52.32;102884.97;6248803;22;20008;-81
2023/05/30 08:11:20;;;;;;;8.15;3.70;;;;;;;17.23;52.40;102887.50;6247957;22;20108;-78
2023/05/30 08:13:47;;;;;;;11.10;4.13;;;;;;;17.50;51.07;102879.69;6251210;22;20020;-88
2023/05/30 08:16:15;;;;;;;14.93;3.95;;;;;;;17.63;50.60;102887.69;6248382;22;20017;-87
2023/05/30 08:18:42;;;;;;;9.02;3.42;;;;;;;17.75;50.05;102880.78;6249437;22;20017;-85
2023/05/30 08:21:14;;;;;;;7.70;3.80;;;;;;;17.76;50.24;102876.91;6251325;22;20501;-88
2023/05/30 08:23:45;;;;;;;18.45;4.20;;;;;;;17.85;50.44;102874.28;6248975;22;20095;-81
2023/05/30 08:26:11;;;;;;;10.13;3.80;;;;;;;17.98;50.25;102875.75;6249627;22;20017;-81
2023/05/30 08:28:38;;;;;;;15.27;3.78;;;;;;;18.02;49.32;102870.19;6250321;22;20013;-80
2023/05/30 08:31:05;;;;;;;10.73;3.95;;;;;;;18.05;48.63;102872.00;6249410;22;20095;-79
2023/05/30 08:33:34;;;;;;;11.18;3.47;;;;;;;17.88;49.35;102876.88;6249977;22;20051;-81
2023/05/30 08:36:01;;;;;;;10.10;3.83;;;;;;;17.97;49.71;102873.47;6250104;22;20067;-81
2023/05/30 08:38:27;;;;;;;7.55;3.40;;;;;;;18.32;48.85;102858.72;6249725;22;20088;-81
2023/05/30 08:40:54;;;;;;;7.45;3.83;;;;;;;18.32;47.43;102866.78;6223040;22;20041;-82
2023/05/30 08:43:21;;;;;;;12.63;3.75;;;;;;;18.57;47.48;102857.00;6249369;22;20431;-85
2023/05/30 08:45:53;;;;;;;11.57;4.40;;;;;;;18.71;48.42;102858.44;6247455;22;20458;-85
2023/05/30 08:48:20;;;;;;;;;;;;;;;18.84;49.24;102856.34;6248421;22;20017;-83
2023/05/30 08:50:47;;;;;;;8.57;3.90;;;;;;;18.83;46.82;102857.53;6248339;22;20388;-84
2023/05/30 08:53:22;;;;;;;7.53;3.85;;;;;;;18.90;46.70;102857.25;6247639;22;20434;-84
2023/05/30 08:56:07;;;;;;;9.52;3.53;;;;;;;18.95;46.41;102854.72;6249326;22;20521;-83
2023/05/30 08:58:47;;;;;;;10.68;3.95;;;;;;;19.13;46.37;102854.03;6250682;22;20485;-84
2023/05/30 09:01:14;;;;;;;9.63;4.13;;;;;;;19.38;46.17;102860.31;6250275;22;20604;-84
2023/05/30 09:03:44;;;;;;;9.80;3.67;;;;;;;19.50;45.16;102857.50;6249747;22;20009;-84
2023/05/30 09:06:12;;;;;;;10.07;4.20;;;;;;;19.48;45.10;102865.28;6249525;22;20016;-84
2023/05/30 09:08:41;;;;;;;10.00;3.97;;;;;;;19.51;45.30;102856.31;6249476;22;20108;-84
2023/05/30 09:11:08;;;;;;;10.35;3.63;;;;;;;19.59;45.14;102856.75;6251000;22;20078;-85
2023/05/30 09:13:34;;;;;;;8.10;3.60;;;;;;;19.77;44.97;102854.03;6249271;22;20439;-84
2023/05/30 09:16:01;;;;;;;15.23;4.13;;;;;;;19.81;44.51;102845.78;6249184;22;20020;-85
2023/05/30 09:18:30;;;;;;;9.60;3.83;;;;;;;19.93;45.06;102845.59;6250941;22;20017;-84
2023/05/30 09:20:58;;;;;;;10.23;3.83;;;;;;;20.05;44.17;102848.56;6251300;22;20084;-84
2023/05/30 09:23:26;;;;;;;10.02;3.90;;;;;;;20.19;44.49;102845.22;6249317;22;20150;-83
2023/05/30 09:25:52;;;;;;;9.45;4.00;;;;;;;20.24;44.26;102842.66;6251190;22;20099;-85
2023/05/30 09:28:27;;;;;;;9.27;3.90;;;;;;;20.53;44.07;102846.75;6249403;22;20134;-84
2023/05/30 09:30:58;;;;;;;10.98;4.15;;;;;;;20.58;43.72;102841.47;6251277;22;20080;-84
2023/05/30 09:33:56;;;;;;;8.23;3.97;;;;;;;20.58;43.59;102848.84;6250792;22;20316;-84
2023/05/30 09:36:26;;;;;;;8.88;4.63;;;;;;;20.51;42.23;102843.75;6225018;22;20044;-85
2023/05/30 09:39:06;;;;;;;6.03;3.70;;;;;;;20.70;43.24;102842.47;6249244;22;20119;-87
2023/05/30 09:41:33;;;;;;;6.10;3.88;;;;;;;20.51;42.79;102846.47;6249934;22;20784;-87
2023/05/30 09:44:04;;;;;;;10.63;3.80;;;;;;;20.69;42.28;102842.94;6249247;22;20016;-85
2023/05/30 09:46:31;;;;;;;8.07;4.18;;;;;;;20.85;41.87;102837.09;6251209;22;20087;-82
2023/05/30 09:48:58;;;;;;;10.20;3.83;;;;;;;20.93;42.14;102839.00;6250659;22;20084;-82
2023/05/30 09:51:25;;;;;;;5.43;3.92;;;;;;;20.97;42.24;102841.53;6248928;22;20040;-82
2023/05/30 09:53:55;;;;;;;9.57;3.75;;;;;;;20.78;41.28;102829.34;6248636;22;20016;-84
2023/05/30 09:56:40;;;;;;;10.32;4.53;;;;;;;20.89;42.96;102834.97;6250539;22;20467;-86
2023/05/30 09:59:08;;;;;;;8.15;3.78;;;;;;;21.12;41.86;102836.19;6248015;22;20328;-83
2023/05/30 10:01:43;;;;;;;8.45;4.07;;;;;;;21.19;40.97;102836.53;6250367;22;20017;-86
2023/05/30 10:04:21;;;;;;;8.05;3.90;;;;;;;21.37;41.92;102832.22;6250880;22;20016;-86
2023/05/30 10:06:51;;;;;;;7.78;3.50;;;;;;;21.29;41.21;102829.88;6249378;22;20024;-84
2023/05/30 10:09:22;;;;;;;6.97;3.70;;;;;;;21.42;40.90;102818.78;6250374;22;20037;-84
2023/05/30 10:11:50;;;;;;;5.93;3.13;;;;;;;21.47;40.60;102825.53;6251635;22;20477;-83
2023/05/30 10:14:17;;;;;;;4.85;4.10;;;;;;;21.08;40.59;102822.81;6250674;22;20020;-82
2023/05/30 10:16:48;;;;;;;12.23;4.30;;;;;;;21.06;41.59;102821.78;6249094;22;20023;-84
2023/05/30 10:19:28;;;;;;;9.90;4.20;;;;;;;21.32;40.77;102819.34;6248590;22;20079;-84
2023/05/30 10:21:57;;;;;;;7.50;4.20;;;;;;;21.23;40.37;102826.31;6249607;22;20036;-84
2023/05/30 10:24:25;;;;;;;5.70;3.70;;;;;;;21.23;41.04;102826.31;6248913;22;20012;-84
2023/05/30 10:26:55;;;;;;;5.25;3.67;;;;;;;21.48;41.00;102819.66;6247269;22;20031;-84
2023/05/30 10:29:28;;;;;;;7.20;3.42;;;;;;;21.52;40.37;102824.88;6250390;22;20459;-79
2023/05/30 10:31:55;;;;;;;7.38;3.90;;;;;;;21.65;40.17;102819.91;6248618;22;20485;-78
2023/05/30 10:34:34;;;;;;;4.60;3.60;;;;;;;21.73;40.39;102814.88;6250259;22;20021;-79
2023/05/30 10:37:01;;;;;;;6.50;4.00;;;;;;;21.70;40.60;102810.38;6250808;22;20027;-82
2023/05/30 10:39:40;;;;;;;5.40;3.92;;;;;;;21.83;41.75;102811.59;6249996;22;20009;-82
2023/05/30 10:42:29;;;;;;;6.15;3.92;;;;;;;21.89;40.94;102803.56;6248144;22;20012;-81
2023/05/30 10:45:16;;;;;;;8.30;3.90;;;;;;;21.89;41.99;102809.75;6249551;22;20437;-81
2023/05/30 10:47:56;;;;;;;11.82;4.30;;;;;;;21.83;41.98;102805.44;6250552;22;20024;-78
2023/05/30 10:50:41;;;;;;;5.50;3.95;;;;;;;21.74;42.44;102798.16;6248351;22;20021;-77
2023/05/30 10:53:14;;;;;;;7.70;3.80;;;;;;;21.84;42.30;102815.06;6249670;22;20459;-80
2023/05/30 10:55:46;;;;;;;7.93;4.18;;;;;;;21.93;41.31;102804.13;6249576;22;20465;-80
2023/05/30 10:58:38;;;;;;;9.20;4.65;;;;;;;22.04;42.26;102803.56;6249492;22;20088;-79
2023/05/30 11:01:26;;;;;;;8.10;4.00;;;;;;;22.16;41.50;102805.22;6248339;22;20468;-80
2023/05/30 11:04:02;;;;;;;8.50;4.10;;;;;;;22.14;41.87;102805.69;6250466;22;20021;-82
2023/05/30 11:06:49;;;;;;;86.82;68.65;;;;;;;22.14;42.20;102802.25;6248385;22;20040;-81
2023/05/30 11:09:17;;;;;;;8.60;4.97;;;;;;;22.02;40.99;102800.56;6222778;22;20017;-82
2023/05/30 11:11:46;;;;;;;17.13;5.50;;;;;;;21.89;42.21;102809.00;6247781;22;20438;-82
2023/05/30 11:14:14;;;;;;;7.97;5.00;;;;;;;22.06;41.70;102803.84;6250365;22;20028;-82
2023/05/30 11:16:54;;;;;;;4.88;3.38;;;;;;;22.11;41.19;102814.03;6250211;22;20020;-83
2023/05/30 11:19:25;;;;;;;5.20;3.50;;;;;;;22.22;40.53;102814.94;6250379;22;20561;-82
2023/05/30 11:22:00;;;;;;;3.38;3.17;;;;;;;22.34;40.62;102815.84;6250317;22;20044;-82
2023/05/30 11:24:31;;;;;;;4.90;3.28;;;;;;;22.38;41.41;102810.97;6222507;22;20494;-81
2023/05/30 11:27:01;;;;;;;5.38;3.30;;;;;;;22.29;41.05;102808.38;6250284;22;20013;-82
2023/05/30 11:29:47;;;;;;;4.20;3.50;;;;;;;22.35;42.10;102806.50;6250140;22;20023;-82
2023/05/30 11:32:18;;;;;;;5.88;3.72;;;;;;;22.24;42.71;102809.06;6250078;22;20446;-82
2023/05/30 11:34:46;;;;;;;4.03;3.35;;;;;;;22.19;42.94;102809.72;6250873;22;20017;-81